Bookmark and Share
Track history (hours):
 

Styrso

Last reported at 2014-Mar-31 10:22 UTC. Time now 2014-Apr-24 00:09 UTC.
Position N 57°42' E 011°40'.
Warning: this ship's position is 23 days out of date.

Type: Military. MMSI: 265500760.

NotesDate/timePositionNaut miles runAvg speedWind from/ knotsBaromVisibWave heightAir tempDewpointWater temp
2014-Mar-31 10:22N 57°42' E 011°40'2 2.4
2014-Mar-31 09:33N 57°44' E 011°40'0 0.1
2014-Mar-31 08:34N 57°45' E 011°40'2 2.0
2014-Mar-31 07:31N 57°42' E 011°40'0 0.0
2014-Mar-31 06:28N 57°42' E 011°40'0 0.0
2014-Mar-31 05:31N 57°42' E 011°40'0 0.0
2014-Mar-31 04:31N 57°42' E 011°40'0 0.0
2014-Mar-31 03:31N 57°42' E 011°40'0 0.0
2014-Mar-31 02:28N 57°42' E 011°40'0 0.0
2014-Mar-31 01:31N 57°42' E 011°40'0 0.0
2014-Mar-31 00:31N 57°42' E 011°40'0 0.0
2014-Mar-30 23:31N 57°42' E 011°40'0 0.0
2014-Mar-30 22:28N 57°42' E 011°40'0 0.0
2014-Mar-30 21:31N 57°42' E 011°40'0 0.0
2014-Mar-30 20:28N 57°42' E 011°40'0 0.0
2014-Mar-30 19:31N 57°42' E 011°40'0 0.0
2014-Mar-30 18:31N 57°42' E 011°40'0 0.0
2014-Mar-30 17:28N 57°42' E 011°40'0 0.0
2014-Mar-30 16:31N 57°42' E 011°40'0 0.0
2014-Mar-30 15:31N 57°42' E 011°40'0 0.0
2014-Mar-30 14:31N 57°42' E 011°40'0 0.0
2014-Mar-30 13:31N 57°42' E 011°40'0 0.0
2014-Mar-30 12:31N 57°42' E 011°40'0 0.0
2014-Mar-30 11:31N 57°42' E 011°40'0 0.0
2014-Mar-30 10:31N 57°42' E 011°40'0 0.0
2014-Mar-30 09:28N 57°42' E 011°40'0 0.0
2014-Mar-30 08:31N 57°42' E 011°40'0 0.0
2014-Mar-30 07:31N 57°42' E 011°40'0 0.0
2014-Mar-30 06:31N 57°42' E 011°40'0 0.0
2014-Mar-30 05:33N 57°42' E 011°40'10 9.9
2014-Mar-30 04:34N 57°33' E 011°38'1212.4
2014-Mar-30 03:34N 57°21' E 011°47'1812.5
2014-Mar-30 02:09N 57°05' E 012°00'712.6
2014-Mar-30 01:34N 56°58' E 012°05'1312.9
2014-Mar-30 00:34N 56°46' E 012°13'1211.9
2014-Mar-29 23:32N 56°34' E 012°20'1313.8
2014-Mar-29 22:33N 56°21' E 012°25'1514.5
2014-Mar-29 21:34N 56°08' E 012°33'1414.0
2014-Mar-29 20:34N 55°55' E 012°44'1313.4
2014-Mar-29 19:33N 55°43' E 012°53'1211.9
2014-Mar-29 18:33N 55°32' E 012°45'1313.0
2014-Mar-29 17:33N 55°19' E 012°42'1312.9
2014-Mar-29 16:33N 55°16' E 013°04'1313.4
2014-Mar-29 15:33N 55°16' E 013°28'1413.8
2014-Mar-29 14:34N 55°15' E 013°52'1413.6
2014-Mar-29 13:34N 55°14' E 014°16'1313.0
2014-Mar-29 12:34N 55°24' E 014°30'1313.2
2014-Mar-29 11:33N 55°34' E 014°44'1313.2
2014-Mar-29 10:34N 55°45' E 014°59'2613.1
2014-Mar-29 08:33N 56°03' E 015°32'6 6.3
2014-Mar-29 07:33N 56°09' E 015°35'0 0.0
2014-Mar-29 06:33N 56°09' E 015°35'0 0.0
2014-Mar-29 05:33N 56°09' E 015°35'0 0.0
2014-Mar-29 04:33N 56°09' E 015°35'0 0.0
2014-Mar-29 03:33N 56°09' E 015°35'0 0.0
2014-Mar-29 02:24N 56°09' E 015°35'0 0.0
2014-Mar-29 01:33N 56°09' E 015°35'0 0.0
2014-Mar-29 00:33N 56°09' E 015°35'0 0.0
2014-Mar-28 23:33N 56°09' E 015°35'0 0.0
2014-Mar-28 22:33N 56°09' E 015°35'0 0.0
2014-Mar-28 21:33N 56°09' E 015°35'0 0.0
2014-Mar-28 20:33N 56°09' E 015°35'0 0.0
2014-Mar-28 19:33N 56°09' E 015°35'0 0.0
2014-Mar-28 18:33N 56°09' E 015°35'0 0.0
2014-Mar-28 17:33N 56°09' E 015°35'0 0.0
2014-Mar-28 16:33N 56°09' E 015°35'0 0.0
2014-Mar-28 15:33N 56°09' E 015°35'0 0.0
2014-Mar-28 14:33N 56°09' E 015°35'0 0.0
2014-Mar-28 13:33N 56°09' E 015°35'0 0.0
2014-Mar-28 12:33N 56°09' E 015°35'0 0.0
2014-Mar-28 11:33N 56°09' E 015°35'0 0.0
2014-Mar-28 10:33N 56°09' E 015°35'0 0.0
2014-Mar-28 09:33N 56°09' E 015°35'0 0.0
2014-Mar-28 08:33N 56°09' E 015°35'0 0.0
2014-Mar-28 07:33N 56°09' E 015°35'0 0.0
2014-Mar-28 06:32N 56°09' E 015°35'0 0.0
2014-Mar-28 05:32N 56°09' E 015°35'0 0.0
2014-Mar-28 04:31N 56°09' E 015°35'0 0.0
2014-Mar-28 03:31N 56°09' E 015°35'0 0.0
2014-Mar-28 02:31N 56°09' E 015°35'0 0.0
2014-Mar-28 01:32N 56°09' E 015°35'0 0.0
2014-Mar-28 00:32N 56°09' E 015°35'0 0.0
2014-Mar-27 23:33N 56°09' E 015°35'0 0.0
2014-Mar-27 22:32N 56°09' E 015°35'0 0.0
2014-Mar-27 21:33N 56°09' E 015°35'0 0.0
2014-Mar-27 20:31N 56°09' E 015°35'0 0.0
2014-Mar-27 19:31N 56°09' E 015°35'0 0.0
2014-Mar-27 18:31N 56°09' E 015°35'0 0.0
2014-Mar-27 17:31N 56°09' E 015°35'0 0.0
2014-Mar-27 16:31N 56°09' E 015°35'0 0.0
2014-Mar-27 15:31N 56°09' E 015°35'0 0.0
2014-Mar-27 14:31N 56°09' E 015°35'0 0.0
2014-Mar-27 13:31N 56°09' E 015°35'0 0.0
2014-Mar-27 12:31N 56°09' E 015°35'0 0.0
2014-Mar-27 11:31N 56°09' E 015°35'0 0.0
2014-Mar-27 10:31N 56°09' E 015°35'0 0.0
2014-Mar-27 09:31N 56°09' E 015°35'0 0.0
2014-Mar-27 08:33N 56°09' E 015°35'0 0.0
2014-Mar-27 07:33N 56°09' E 015°35'0 0.0
2014-Mar-27 06:33N 56°09' E 015°35'0 0.0
2014-Mar-27 05:33N 56°09' E 015°35'0 0.0
2014-Mar-27 04:30N 56°09' E 015°35'0 0.0
2014-Mar-27 03:33N 56°09' E 015°35'0 0.0
2014-Mar-27 02:33N 56°09' E 015°35'0 0.0
2014-Mar-27 01:30N 56°09' E 015°35'0 0.0
2014-Mar-27 00:33N 56°09' E 015°35'0 0.0
2014-Mar-26 23:32N 56°09' E 015°35'0 0.0
2014-Mar-26 20:29N 56°09' E 015°35'0 0.0
2014-Mar-26 19:29N 56°09' E 015°35'0 0.0
2014-Mar-26 17:32N 56°09' E 015°35'0 0.0
2014-Mar-26 16:32N 56°09' E 015°35'3 2.9
2014-Mar-26 15:33N 56°06' E 015°35'8 0.9
2014-Mar-26 07:11N 55°60' E 015°28'10 0.3
2014-Mar-24 16:56N 56°09' E 015°35'0 0.0
2014-Mar-22 20:33N 56°09' E 015°35'0 0.0
2014-Mar-22 20:24N 56°09' E 015°35'0 0.0
2014-Mar-22 17:33N 56°09' E 015°35'0 0.0
2014-Mar-22 14:33N 56°09' E 015°35'0 0.0
2014-Mar-22 13:33N 56°09' E 015°35'0 0.0
2014-Mar-22 12:33N 56°09' E 015°35'0 0.0
2014-Mar-22 11:33N 56°09' E 015°35'0 0.0
2014-Mar-22 10:33N 56°09' E 015°35'0 0.0
2014-Mar-22 09:33N 56°09' E 015°35'0 0.0
2014-Mar-22 08:31N 56°09' E 015°35'0 0.0
2014-Mar-22 07:31N 56°09' E 015°35'0 0.0
2014-Mar-22 06:33N 56°09' E 015°35'0 0.0
2014-Mar-22 05:33N 56°09' E 015°35'0 0.0
2014-Mar-22 04:31N 56°09' E 015°35'0 0.0
2014-Mar-22 03:31N 56°09' E 015°35'0 0.0
2014-Mar-22 02:24N 56°09' E 015°35'0 0.0
2014-Mar-22 01:33N 56°09' E 015°35'0 0.0
2014-Mar-22 00:32N 56°09' E 015°35'0 0.0
2014-Mar-21 23:32N 56°09' E 015°35'0 0.0
2014-Mar-21 22:32N 56°09' E 015°35'0 0.0
2014-Mar-21 21:32N 56°09' E 015°35'0 0.0
2014-Mar-21 20:32N 56°09' E 015°35'0 0.0
2014-Mar-21 19:32N 56°09' E 015°35'0 0.0
2014-Mar-21 18:32N 56°09' E 015°35'0 0.0
2014-Mar-21 17:32N 56°09' E 015°35'0 0.0
2014-Mar-21 16:32N 56°09' E 015°35'0 0.0
2014-Mar-21 15:32N 56°09' E 015°35'0 0.0
2014-Mar-21 14:32N 56°09' E 015°35'0 0.0
2014-Mar-21 13:32N 56°09' E 015°35'0 0.0
2014-Mar-21 12:32N 56°09' E 015°35'0 0.0
2014-Mar-21 11:32N 56°09' E 015°35'0 0.0
2014-Mar-21 10:32N 56°09' E 015°35'  

Dump ship's entire track history

sailing weather and tide predictions

Styrso — SDYO — position and weather